createdAt,value
2022-12-16T00:01:51.191Z,-6.20
2022-12-16T00:04:21.519Z,-6.30
2022-12-16T00:06:49.701Z,-6.20
2022-12-16T00:09:20.232Z,-6.20
2022-12-16T00:11:48.324Z,-6.20
2022-12-16T00:14:16.533Z,-6.20
2022-12-16T00:16:46.760Z,-6.30
2022-12-16T00:19:15.103Z,-6.30
2022-12-16T00:21:44.565Z,-6.40
2022-12-16T00:24:12.607Z,-6.30
2022-12-16T00:26:40.717Z,-6.30
2022-12-16T00:29:11.073Z,-6.40
2022-12-16T00:31:41.624Z,-6.40
2022-12-16T00:34:09.773Z,-6.30
2022-12-16T00:36:37.828Z,-6.40
2022-12-16T00:39:07.275Z,-6.40
2022-12-16T00:41:35.414Z,-6.40
2022-12-16T00:44:03.940Z,-6.40
2022-12-16T00:46:32.116Z,-6.50
2022-12-16T00:49:00.234Z,-6.60
2022-12-16T00:51:28.455Z,-6.60
2022-12-16T00:53:56.570Z,-6.60
2022-12-16T00:56:26.139Z,-6.80
2022-12-16T00:58:54.881Z,-6.90
2022-12-16T01:01:23.103Z,-7.00
2022-12-16T01:03:51.343Z,-6.70
2022-12-16T01:06:19.658Z,-6.80
2022-12-16T01:08:49.264Z,-6.80
2022-12-16T01:11:18.146Z,-6.80
2022-12-16T01:13:51.229Z,-6.80
2022-12-16T01:16:22.666Z,-6.80
2022-12-16T01:18:50.836Z,-6.90
2022-12-16T01:21:18.892Z,-7.00
2022-12-16T01:23:48.688Z,-7.00
2022-12-16T01:26:18.855Z,-6.80
2022-12-16T01:28:49.717Z,-6.90
2022-12-16T01:31:19.178Z,-7.00
2022-12-16T01:33:47.706Z,-7.10
2022-12-16T01:36:15.778Z,-7.00
2022-12-16T01:38:45.173Z,-6.80
2022-12-16T01:41:15.298Z,-6.80
2022-12-16T01:43:45.264Z,-6.70
2022-12-16T01:46:21.865Z,-6.80
2022-12-16T01:48:53.740Z,-6.80
2022-12-16T01:51:26.875Z,-6.80
2022-12-16T01:53:58.921Z,-6.90
2022-12-16T01:56:32.024Z,-6.80
2022-12-16T01:59:01.563Z,-6.90
2022-12-16T02:01:33.559Z,-7.00
2022-12-16T02:04:05.505Z,-7.00
2022-12-16T02:06:35.880Z,-7.00
2022-12-16T02:09:07.437Z,-7.00
2022-12-16T02:11:46.917Z,-6.90
2022-12-16T02:14:53.330Z,-6.90
2022-12-16T02:17:33.165Z,-6.90
2022-12-16T02:20:17.029Z,-6.90
2022-12-16T02:23:04.693Z,-7.00
2022-12-16T02:26:30.925Z,-6.90
2022-12-16T02:29:14.936Z,-7.00
2022-12-16T02:31:53.759Z,-7.10
2022-12-16T02:34:32.796Z,-7.00
2022-12-16T02:37:13.353Z,-7.00
2022-12-16T02:39:49.556Z,-7.10
2022-12-16T02:42:24.145Z,-7.00
2022-12-16T02:44:59.442Z,-7.00
2022-12-16T02:47:29.677Z,-6.90
2022-12-16T02:49:58.339Z,-6.90
2022-12-16T02:52:29.143Z,-6.80
2022-12-16T02:54:59.429Z,-6.80
2022-12-16T02:58:08.267Z,-7.00
2022-12-16T03:00:47.676Z,-7.00
2022-12-16T03:03:21.598Z,-6.90
2022-12-16T03:05:52.567Z,-6.90
2022-12-16T03:08:26.154Z,-7.00
2022-12-16T03:10:57.334Z,-6.90
2022-12-16T03:13:28.605Z,-7.00
2022-12-16T03:15:59.460Z,-7.10
2022-12-16T03:18:30.730Z,-7.00
2022-12-16T03:21:04.131Z,-7.10
2022-12-16T03:23:38.929Z,-7.00
2022-12-16T03:26:10.360Z,-6.90
2022-12-16T03:28:46.822Z,-7.00
2022-12-16T03:31:26.994Z,-7.00
2022-12-16T03:34:01.739Z,-7.00
2022-12-16T03:36:34.095Z,-6.90
2022-12-16T03:39:04.308Z,-6.80
2022-12-16T03:41:33.693Z,-6.70
2022-12-16T03:44:02.342Z,-6.70
2022-12-16T03:46:30.459Z,-6.80
2022-12-16T03:49:00.057Z,-6.80
2022-12-16T03:51:28.182Z,-6.60
2022-12-16T03:53:56.383Z,-6.60
2022-12-16T03:56:24.399Z,-6.40
2022-12-16T03:58:52.633Z,-6.50
2022-12-16T04:01:20.859Z,-6.60
2022-12-16T04:03:49.270Z,-6.70
2022-12-16T04:06:18.981Z,-6.60
2022-12-16T04:08:48.003Z,-6.50
2022-12-16T04:11:34.133Z,-6.50
2022-12-16T04:14:20.017Z,-6.50
2022-12-16T04:17:05.424Z,-6.50
2022-12-16T04:19:55.057Z,-6.40
2022-12-16T04:22:45.261Z,-6.40
2022-12-16T04:25:17.547Z,-6.40
2022-12-16T04:27:47.009Z,-6.40
2022-12-16T04:30:22.201Z,-6.40
2022-12-16T04:33:13.851Z,-6.40
2022-12-16T04:35:59.645Z,-6.30
2022-12-16T04:38:47.154Z,-6.50
2022-12-16T04:41:32.905Z,-6.50
2022-12-16T04:44:18.885Z,-6.50
2022-12-16T04:47:05.140Z,-6.60
2022-12-16T04:49:50.570Z,-6.50
2022-12-16T04:52:37.083Z,-6.40
2022-12-16T04:55:25.257Z,-6.40
2022-12-16T04:58:11.677Z,-6.60
2022-12-16T05:00:57.502Z,-6.60
2022-12-16T05:03:44.203Z,-6.60
2022-12-16T05:06:29.932Z,-6.70
2022-12-16T05:09:16.183Z,-6.60
2022-12-16T05:12:03.470Z,-6.70
2022-12-16T05:14:52.314Z,-6.70
2022-12-16T05:17:49.599Z,-6.80
2022-12-16T05:20:35.086Z,-6.60
2022-12-16T05:23:20.639Z,-6.60
2022-12-16T05:26:06.206Z,-6.50
2022-12-16T05:28:53.330Z,-6.50
2022-12-16T05:31:39.034Z,-6.60
2022-12-16T05:34:24.938Z,-6.70
2022-12-16T05:37:10.308Z,-6.60
2022-12-16T05:39:55.705Z,-6.70
2022-12-16T05:42:41.422Z,-6.60
2022-12-16T05:45:28.639Z,-6.60
2022-12-16T05:48:14.561Z,-6.80
2022-12-16T05:51:08.455Z,-6.90
2022-12-16T05:53:56.203Z,-6.90
2022-12-16T05:56:41.549Z,-6.90
2022-12-16T05:59:27.376Z,-6.80
2022-12-16T06:02:16.607Z,-6.70
2022-12-16T06:05:02.513Z,-6.50
2022-12-16T06:07:59.702Z,-6.40
2022-12-16T06:10:45.259Z,-6.50
2022-12-16T06:13:31.053Z,-6.30
2022-12-16T06:16:16.776Z,-6.20
2022-12-16T06:19:03.857Z,-6.30
2022-12-16T06:21:49.197Z,-6.40
2022-12-16T06:24:43.406Z,-6.30
2022-12-16T06:27:28.885Z,-6.30
2022-12-16T06:30:14.162Z,-6.40
2022-12-16T06:33:02.020Z,-6.30
2022-12-16T06:35:49.323Z,-6.50
2022-12-16T06:38:42.968Z,-6.50
2022-12-16T06:41:29.592Z,-6.40
2022-12-16T06:44:15.662Z,-6.30
2022-12-16T06:47:03.543Z,-6.00
2022-12-16T06:49:49.206Z,-6.20
2022-12-16T06:52:36.350Z,-6.50
2022-12-16T06:55:22.180Z,-6.60
2022-12-16T06:58:10.108Z,-6.70
2022-12-16T07:00:55.874Z,-6.40
2022-12-16T07:03:41.726Z,-6.20
2022-12-16T07:06:27.664Z,-6.40
2022-12-16T07:09:14.523Z,-6.10
2022-12-16T07:12:02.698Z,-6.00
2022-12-16T07:14:48.252Z,-6.00
2022-12-16T07:17:33.643Z,-5.80
2022-12-16T07:20:19.224Z,-6.00
2022-12-16T07:23:13.180Z,-6.00
2022-12-16T07:26:15.980Z,-6.00
2022-12-16T07:29:02.620Z,-5.80
2022-12-16T07:31:48.127Z,-5.70
2022-12-16T07:34:40.077Z,-5.70
2022-12-16T07:37:27.040Z,-5.60
2022-12-16T07:40:12.622Z,-5.60
2022-12-16T07:43:01.298Z,-5.50
2022-12-16T07:45:46.644Z,-5.50
2022-12-16T07:48:31.978Z,-5.60
2022-12-16T07:51:18.638Z,-5.60
2022-12-16T07:54:00.766Z,-5.50
2022-12-16T07:56:46.229Z,-5.50
2022-12-16T07:59:33.032Z,-5.50
2022-12-16T08:02:18.682Z,-5.50
2022-12-16T08:05:04.587Z,-5.40
2022-12-16T08:07:51.922Z,-5.40
2022-12-16T08:10:37.541Z,-5.60
2022-12-16T08:13:26.151Z,-5.60
2022-12-16T08:16:13.630Z,-5.30
2022-12-16T08:18:59.516Z,-5.20
2022-12-16T08:21:45.005Z,-5.30
2022-12-16T08:24:30.749Z,-5.20
2022-12-16T08:27:17.125Z,-5.30
2022-12-16T08:30:02.667Z,-5.30
2022-12-16T08:32:53.183Z,-5.30
2022-12-16T08:35:42.636Z,-5.40
2022-12-16T08:38:28.508Z,-5.30
2022-12-16T08:41:16.834Z,-5.20
2022-12-16T08:44:02.439Z,-5.30
2022-12-16T08:46:53.211Z,-5.10
2022-12-16T08:49:39.935Z,-5.00
2022-12-16T08:52:25.774Z,-5.00
2022-12-16T08:55:11.151Z,-4.90
2022-12-16T08:57:57.048Z,-4.70
2022-12-16T09:00:42.703Z,-4.70
2022-12-16T09:03:28.126Z,-4.60
2022-12-16T09:06:18.441Z,-4.60
2022-12-16T09:09:03.924Z,-4.50
2022-12-16T09:11:49.472Z,-4.50
2022-12-16T09:14:37.177Z,-4.30
2022-12-16T09:17:22.641Z,-4.30
2022-12-16T09:20:13.804Z,-4.20
2022-12-16T09:23:00.667Z,-4.00
2022-12-16T09:25:46.289Z,-4.00
2022-12-16T09:28:31.704Z,-4.10
2022-12-16T09:31:17.204Z,-3.80
2022-12-16T09:34:03.077Z,-3.80
2022-12-16T09:36:48.555Z,-3.80
2022-12-16T09:39:35.575Z,-3.90
2022-12-16T09:42:31.996Z,-3.70
2022-12-16T09:45:26.888Z,-3.60
2022-12-16T09:48:22.174Z,-3.70
2022-12-16T09:51:10.937Z,-3.70
2022-12-16T09:54:08.414Z,-3.60
2022-12-16T09:56:56.203Z,-3.40
2022-12-16T09:59:45.819Z,-3.20
2022-12-16T10:02:33.348Z,-3.10
2022-12-16T10:05:19.323Z,-3.20
2022-12-16T10:08:28.126Z,-3.10
2022-12-16T10:11:23.256Z,-3.10
2022-12-16T10:14:20.242Z,-2.90
2022-12-16T10:17:18.215Z,-2.70
2022-12-16T10:20:12.056Z,-2.80
2022-12-16T10:23:06.561Z,-2.60
2022-12-16T10:25:58.971Z,-2.70
2022-12-16T10:29:10.900Z,-2.50
2022-12-16T10:31:58.472Z,-2.60
2022-12-16T10:34:47.400Z,-2.40
2022-12-16T10:37:36.684Z,-2.50
2022-12-16T10:40:24.971Z,-2.40
2022-12-16T10:43:22.715Z,-2.40
2022-12-16T10:46:12.877Z,-2.30
2022-12-16T10:48:59.987Z,-2.20
2022-12-16T10:51:48.003Z,-2.20
2022-12-16T10:54:50.744Z,-2.10
2022-12-16T10:57:48.654Z,-2.10
2022-12-16T11:00:36.468Z,-2.00
2022-12-16T11:03:37.214Z,-2.10
2022-12-16T11:06:26.233Z,-2.10
2022-12-16T11:09:11.579Z,-2.00
2022-12-16T11:11:56.974Z,-2.00
2022-12-16T11:14:59.501Z,-2.10
2022-12-16T11:17:52.409Z,-2.20
2022-12-16T11:20:40.444Z,-2.20
2022-12-16T11:23:31.867Z,-2.20
2022-12-16T11:26:28.509Z,-1.90
2022-12-16T11:29:30.434Z,-1.70
2022-12-16T11:32:23.904Z,-1.70
2022-12-16T11:35:13.266Z,-1.60
2022-12-16T11:38:02.160Z,-1.70
2022-12-16T11:40:50.283Z,-1.60
2022-12-16T11:43:38.395Z,-1.70
2022-12-16T11:46:28.789Z,-1.70
2022-12-16T11:49:24.705Z,-1.70
2022-12-16T11:52:35.911Z,-1.60
2022-12-16T11:56:03.402Z,-1.60
2022-12-16T11:58:47.697Z,-1.50
2022-12-16T12:01:44.919Z,-1.50
2022-12-16T12:04:32.594Z,-1.30
2022-12-16T12:07:44.504Z,-1.20
2022-12-16T12:11:12.789Z,-1.20
2022-12-16T12:14:08.727Z,-1.20
2022-12-16T12:17:06.580Z,-1.40
2022-12-16T12:20:03.771Z,-1.40
2022-12-16T12:22:54.646Z,-1.40
2022-12-16T12:25:46.780Z,-1.30
2022-12-16T12:28:44.095Z,-1.50
2022-12-16T12:31:43.854Z,-1.50
2022-12-16T12:34:38.375Z,-1.30
2022-12-16T12:37:34.470Z,-1.30
2022-12-16T12:40:32.284Z,-1.20
2022-12-16T12:43:38.597Z,-1.20
2022-12-16T12:46:38.439Z,-1.30
2022-12-16T12:49:40.540Z,-1.20
2022-12-16T12:52:36.791Z,-1.20
2022-12-16T12:55:29.114Z,-1.10
2022-12-16T12:58:18.896Z,-1.10
2022-12-16T13:01:09.741Z,-1.20
2022-12-16T13:04:02.348Z,-1.20
2022-12-16T13:06:48.438Z,-1.30
2022-12-16T13:09:52.717Z,-1.20
2022-12-16T13:12:47.112Z,-1.20
2022-12-16T13:15:52.776Z,-1.20
2022-12-16T13:18:41.249Z,-1.50
2022-12-16T13:22:03.001Z,-1.40
2022-12-16T13:24:54.893Z,-1.40
2022-12-16T13:27:41.510Z,-1.30
2022-12-16T13:30:42.377Z,-1.30
2022-12-16T13:33:45.759Z,-1.30
2022-12-16T13:36:32.752Z,-1.40
2022-12-16T13:39:39.935Z,-1.40
2022-12-16T13:42:53.642Z,-1.60
2022-12-16T13:45:51.320Z,-1.60
2022-12-16T13:48:58.340Z,-1.60
2022-12-16T13:52:26.604Z,-1.60
2022-12-16T13:55:30.474Z,-1.40
2022-12-16T13:58:25.127Z,-1.50
2022-12-16T14:01:21.750Z,-1.50
2022-12-16T14:04:09.901Z,-1.50
2022-12-16T14:06:58.104Z,-1.60
2022-12-16T14:09:50.580Z,-1.60
2022-12-16T14:13:00.350Z,-1.60
2022-12-16T14:15:51.550Z,-1.60
2022-12-16T14:18:46.829Z,-1.70
2022-12-16T14:21:38.915Z,-1.60
2022-12-16T14:24:30.217Z,-1.70
2022-12-16T14:27:24.640Z,-1.70
2022-12-16T14:30:11.391Z,-1.60
2022-12-16T14:32:56.860Z,-1.60
2022-12-16T14:35:45.605Z,-1.60
2022-12-16T14:38:42.657Z,-1.60
2022-12-16T14:41:33.724Z,-1.60
2022-12-16T14:44:20.486Z,-1.70
2022-12-16T14:47:10.459Z,-1.70
2022-12-16T14:50:09.353Z,-1.70
2022-12-16T14:52:58.604Z,-1.80
2022-12-16T14:55:49.710Z,-1.80
2022-12-16T14:58:40.147Z,-1.80
2022-12-16T15:01:33.804Z,-1.80
2022-12-16T15:04:23.781Z,-1.80
2022-12-16T15:07:17.933Z,-1.90
2022-12-16T15:10:07.372Z,-1.80
2022-12-16T15:12:56.556Z,-1.80
2022-12-16T15:15:49.690Z,-1.80
2022-12-16T15:18:39.748Z,-1.90
2022-12-16T15:21:27.693Z,-1.90
2022-12-16T15:24:14.509Z,-1.90
2022-12-16T15:27:03.200Z,-2.00
2022-12-16T15:29:53.199Z,-2.00
2022-12-16T15:32:47.945Z,-1.90
2022-12-16T15:35:44.284Z,-2.00
2022-12-16T15:38:35.741Z,-2.10
2022-12-16T15:41:24.871Z,-2.10
2022-12-16T15:44:13.869Z,-2.00
2022-12-16T15:47:06.927Z,-2.00
2022-12-16T15:49:53.471Z,-2.00
2022-12-16T15:52:52.809Z,-2.00
2022-12-16T15:55:49.056Z,-2.00
2022-12-16T15:58:46.100Z,-2.10
2022-12-16T16:01:34.626Z,-2.10
2022-12-16T16:04:20.459Z,-2.00
2022-12-16T16:07:08.076Z,-2.00
2022-12-16T16:09:55.326Z,-2.10
2022-12-16T16:12:44.038Z,-2.10
2022-12-16T16:15:46.374Z,-2.20
2022-12-16T16:18:32.480Z,-2.20
2022-12-16T16:21:18.183Z,-2.20
2022-12-16T16:24:03.950Z,-2.20
2022-12-16T16:26:57.024Z,-2.30
2022-12-16T16:29:44.568Z,-2.30
2022-12-16T16:32:30.391Z,-2.30
2022-12-16T16:35:30.184Z,-2.30
2022-12-16T16:38:18.577Z,-2.40
2022-12-16T16:41:05.978Z,-2.40
2022-12-16T16:43:52.376Z,-2.30
2022-12-16T16:46:58.794Z,-2.30
2022-12-16T16:49:48.717Z,-2.40
2022-12-16T16:52:39.003Z,-2.40
2022-12-16T16:55:25.862Z,-2.40
2022-12-16T16:58:11.364Z,-2.40
2022-12-16T17:00:57.102Z,-2.30
2022-12-16T17:03:44.652Z,-2.30
2022-12-16T17:06:30.433Z,-2.30
2022-12-16T17:09:18.592Z,-2.30
2022-12-16T17:12:04.139Z,-2.30
2022-12-16T17:14:50.414Z,-2.40
2022-12-16T17:17:38.241Z,-2.30
2022-12-16T17:20:36.834Z,-2.30
2022-12-16T17:23:22.738Z,-2.40
2022-12-16T17:26:09.468Z,-2.40
2022-12-16T17:28:55.377Z,-2.40
2022-12-16T17:31:41.062Z,-2.30
2022-12-16T17:34:34.989Z,-2.40
2022-12-16T17:37:21.736Z,-2.40
2022-12-16T17:40:07.072Z,-2.40
2022-12-16T17:42:52.854Z,-2.40
2022-12-16T17:45:38.753Z,-2.40
2022-12-16T17:48:24.967Z,-2.40
2022-12-16T17:51:10.726Z,-2.40
2022-12-16T17:54:01.962Z,-2.40
2022-12-16T17:56:49.870Z,-2.50
2022-12-16T17:59:35.277Z,-2.50
2022-12-16T18:02:20.967Z,-2.50
2022-12-16T18:05:08.737Z,-2.50
2022-12-16T18:07:54.057Z,-2.50
2022-12-16T18:10:40.822Z,-2.50
2022-12-16T18:13:26.260Z,-2.50
2022-12-16T18:16:12.018Z,-2.50
2022-12-16T18:18:58.055Z,-2.50
2022-12-16T18:21:43.813Z,-2.50
2022-12-16T18:24:48.357Z,-2.40
2022-12-16T18:27:35.992Z,-2.50
2022-12-16T18:30:22.340Z,-2.50
2022-12-16T18:33:09.467Z,-2.50
2022-12-16T18:35:54.887Z,-2.60
2022-12-16T18:38:40.852Z,-2.60
2022-12-16T18:41:34.572Z,-2.50
2022-12-16T18:44:21.750Z,-2.40
2022-12-16T18:47:07.469Z,-2.40
2022-12-16T18:49:53.211Z,-2.40
2022-12-16T18:52:41.207Z,-2.50
2022-12-16T18:55:29.461Z,-2.50
2022-12-16T18:58:42.527Z,-2.40
2022-12-16T19:01:23.494Z,-2.40
2022-12-16T19:04:10.313Z,-2.40
2022-12-16T19:06:56.518Z,-2.40
2022-12-16T19:09:42.361Z,-2.40
2022-12-16T19:12:28.151Z,-2.30
2022-12-16T19:15:16.129Z,-2.30
2022-12-16T19:18:02.880Z,-2.30
2022-12-16T19:20:48.442Z,-2.30
2022-12-16T19:23:35.798Z,-2.20
2022-12-16T19:26:24.477Z,-2.30
2022-12-16T19:29:12.403Z,-2.30
2022-12-16T19:32:00.521Z,-2.40
2022-12-16T19:34:47.493Z,-2.30
2022-12-16T19:37:35.156Z,-2.50
2022-12-16T19:40:20.876Z,-2.40
2022-12-16T19:43:06.372Z,-2.40
2022-12-16T19:45:52.005Z,-2.40
2022-12-16T19:48:37.995Z,-2.50
2022-12-16T19:51:28.217Z,-2.40
2022-12-16T19:54:13.904Z,-2.40
2022-12-16T19:57:01.826Z,-2.40
2022-12-16T19:59:47.960Z,-2.40
2022-12-16T20:02:33.665Z,-2.40
2022-12-16T20:05:19.533Z,-2.40
2022-12-16T20:08:06.487Z,-2.40
2022-12-16T20:10:54.891Z,-2.40
2022-12-16T20:13:42.129Z,-2.30
2022-12-16T20:16:30.015Z,-2.30
2022-12-16T20:19:16.210Z,-2.30
2022-12-16T20:22:06.446Z,-2.30
2022-12-16T20:24:56.377Z,-2.30
2022-12-16T20:27:42.173Z,-2.30
2022-12-16T20:30:28.970Z,-2.30
2022-12-16T20:33:22.669Z,-2.30
2022-12-16T20:36:14.874Z,-2.30
2022-12-16T20:39:00.884Z,-2.30
2022-12-16T20:41:51.724Z,-2.20
2022-12-16T20:44:37.650Z,-2.20
2022-12-16T20:47:23.462Z,-2.20
2022-12-16T20:50:09.253Z,-2.20
2022-12-16T20:52:55.051Z,-2.20
2022-12-16T20:55:42.208Z,-2.20
2022-12-16T20:58:35.533Z,-2.20
2022-12-16T21:01:21.545Z,-2.20
2022-12-16T21:04:07.015Z,-2.20
2022-12-16T21:07:04.353Z,-2.20
2022-12-16T21:09:50.143Z,-2.20
2022-12-16T21:12:35.517Z,-2.10
2022-12-16T21:15:23.666Z,-2.20
2022-12-16T21:18:20.745Z,-2.10
2022-12-16T21:21:12.977Z,-2.20
2022-12-16T21:23:59.066Z,-2.20
2022-12-16T21:26:44.984Z,-2.20
2022-12-16T21:29:30.338Z,-2.20
2022-12-16T21:32:17.306Z,-2.20
2022-12-16T21:35:02.709Z,-2.20
2022-12-16T21:37:47.737Z,-2.20
2022-12-16T21:40:33.682Z,-2.20
2022-12-16T21:43:19.536Z,-2.20
2022-12-16T21:46:11.872Z,-2.20
2022-12-16T21:48:58.749Z,-2.10
2022-12-16T21:51:44.292Z,-2.10
2022-12-16T21:54:29.609Z,-2.10
2022-12-16T21:57:15.101Z,-2.20
2022-12-16T22:00:00.391Z,-2.20
2022-12-16T22:02:45.874Z,-2.10
2022-12-16T22:05:33.237Z,-2.10
2022-12-16T22:08:24.323Z,-2.10
2022-12-16T22:11:09.549Z,-2.10
2022-12-16T22:13:55.024Z,-2.20
2022-12-16T22:16:41.933Z,-2.20
2022-12-16T22:19:29.620Z,-2.20
2022-12-16T22:22:16.655Z,-2.10
2022-12-16T22:25:02.377Z,-2.10
2022-12-16T22:27:47.926Z,-2.10
2022-12-16T22:30:33.739Z,-2.20
2022-12-16T22:33:19.031Z,-2.20
2022-12-16T22:36:04.780Z,-2.20
2022-12-16T22:38:56.247Z,-2.20
2022-12-16T22:41:42.120Z,-2.10
2022-12-16T22:44:28.567Z,-2.00
2022-12-16T22:47:13.307Z,-2.10
2022-12-16T22:49:58.870Z,-2.10
2022-12-16T22:52:49.749Z,-2.10
2022-12-16T22:55:44.966Z,-2.10
2022-12-16T22:58:30.861Z,-2.10
2022-12-16T23:01:16.258Z,-2.10
2022-12-16T23:04:01.672Z,-2.10
2022-12-16T23:06:47.321Z,-2.00
2022-12-16T23:09:36.309Z,-2.10
2022-12-16T23:12:24.115Z,-2.00
2022-12-16T23:15:15.008Z,-2.00
2022-12-16T23:18:02.720Z,-2.00
2022-12-16T23:20:48.146Z,-2.00
2022-12-16T23:23:33.613Z,-2.00
2022-12-16T23:26:21.703Z,-2.00
2022-12-16T23:29:09.803Z,-2.00
2022-12-16T23:32:31.434Z,-2.00
2022-12-16T23:35:00.645Z,-2.00
2022-12-16T23:37:46.336Z,-2.00
2022-12-16T23:40:31.737Z,-2.00
2022-12-16T23:43:17.443Z,-2.00
2022-12-16T23:46:04.637Z,-2.00
2022-12-16T23:48:50.053Z,-2.00
2022-12-16T23:51:35.749Z,-1.90
2022-12-16T23:54:25.370Z,-1.90
2022-12-16T23:57:10.744Z,-1.90
2022-12-16T23:59:56.601Z,-1.90
